Time;durP1;ratioP1;P1;durP2;ratioP2;P2;SDS_P1;SDS_P2;PMS_P1;PMS_P2;Temp;Humidity;BMP_temperature;BMP_pressure;BME280_temperature;BME280_humidity;BME280_pressure;Samples;Min_cycle;Max_cycle;Signal;HPM_P1;HPM_P2
2023/04/18 00:01:16;;;;;;;20.42;8.60;;;;;;;;;;6096615;23;20068;-76
2023/04/18 00:03:44;;;;;;;28.70;8.82;;;;;;;;;;6096625;23;20446;-75
2023/04/18 00:06:11;;;;;;;24.17;7.95;;;;;;;;;;6122895;23;20538;-76
2023/04/18 00:08:37;;;;;;;24.45;8.50;;;;;;;;;;6097394;23;20041;-75
2023/04/18 00:11:04;;;;;;;24.30;8.32;;;;;;;;;;6083359;23;20020;-75
2023/04/18 00:13:30;;;;;;;20.98;8.10;;;;;;;;;;6130330;23;20013;-74
2023/04/18 00:15:56;;;;;;;32.35;8.35;;;;;;;;;;6133977;23;20086;-74
2023/04/18 00:18:25;;;;;;;18.92;8.50;;;;;;;;;;6084467;23;20014;-74
2023/04/18 00:20:51;;;;;;;16.00;7.60;;;;;;;;;;6123938;23;20447;-75
2023/04/18 00:23:20;;;;;;;20.40;8.60;;;;;;;;;;6096463;23;20057;-74
2023/04/18 00:25:46;;;;;;;32.05;8.68;;;;;;;;;;6122524;23;20065;-74
2023/04/18 00:28:12;;;;;;;20.35;8.55;;;;;;;;;;6096880;23;20014;-73
2023/04/18 00:30:38;;;;;;;16.40;7.75;;;;;;;;;;6072369;23;20064;-74
2023/04/18 00:33:06;;;;;;;13.38;7.65;;;;;;;;;;6122204;23;20010;-74
2023/04/18 00:35:32;;;;;;;21.05;7.93;;;;;;;;;;6096282;23;20090;-73
2023/04/18 00:37:58;;;;;;;30.10;7.72;;;;;;;;;;6122332;23;20108;-74
2023/04/18 00:40:24;;;;;;;18.90;7.25;;;;;;;;;;6096481;23;20096;-75
2023/04/18 00:42:50;;;;;;;15.13;7.30;;;;;;;;;;6122333;23;20021;-75
2023/04/18 00:45:16;;;;;;;21.92;7.60;;;;;;;;;;6122158;23;20024;-74
2023/04/18 00:47:42;;;;;;;12.45;7.65;;;;;;;;;;6121947;23;20021;-74
2023/04/18 00:50:09;;;;;;;17.23;7.88;;;;;;;;;;6096820;23;20021;-74
2023/04/18 00:52:35;;;;;;;29.73;8.70;;;;;;;;;;6123912;23;20017;-75
2023/04/18 00:55:02;;;;;;;38.85;10.27;;;;;;;;;;6072555;23;20014;-74
2023/04/18 00:57:29;;;;;;;29.95;8.70;;;;;;;;;;6096578;23;20010;-75
2023/04/18 00:59:55;;;;;;;33.08;9.57;;;;;;;;;;6072336;23;20336;-75
2023/04/18 01:02:22;;;;;;;25.27;9.02;;;;;;;;;;6097798;23;20014;-75
2023/04/18 01:04:48;;;;;;;27.10;9.00;;;;;;;;;;6099911;23;20010;-74
2023/04/18 01:07:14;;;;;;;31.20;9.95;;;;;;;;;;6100991;23;20018;-75
2023/04/18 01:09:40;;;;;;;31.83;8.32;;;;;;;;;;6077801;23;20656;-74
2023/04/18 01:12:06;;;;;;;33.42;9.60;;;;;;;;;;6127646;23;20013;-75
2023/04/18 01:14:32;;;;;;;28.42;8.60;;;;;;;;;;6127950;23;20454;-74
2023/04/18 01:16:58;;;;;;;17.23;8.18;;;;;;;;;;6127909;23;20097;-76
2023/04/18 01:19:25;;;;;;;16.85;7.57;;;;;;;;;;6127704;23;20513;-75
2023/04/18 01:21:52;;;;;;;20.35;7.97;;;;;;;;;;6127312;23;20029;-75
2023/04/18 01:24:18;;;;;;;19.80;7.95;;;;;;;;;;6123643;23;20021;-76
2023/04/18 01:26:44;;;;;;;14.00;7.63;;;;;;;;;;6095828;23;20014;-75
2023/04/18 01:29:10;;;;;;;28.60;8.18;;;;;;;;;;6071820;23;20120;-75
2023/04/18 01:31:37;;;;;;;26.33;8.48;;;;;;;;;;6122154;23;20018;-75
2023/04/18 01:34:04;;;;;;;30.42;9.43;;;;;;;;;;6124945;23;20454;-76
2023/04/18 01:36:30;;;;;;;28.90;9.50;;;;;;;;;;6095875;23;20268;-76
2023/04/18 01:38:59;;;;;;;40.75;14.25;;;;;;;;;;6121980;23;20024;-75
2023/04/18 01:41:27;;;;;;;33.40;9.55;;;;;;;;;;6095833;23;20028;-74
2023/04/18 01:43:54;;;;;;;39.67;11.73;;;;;;;;;;6095825;23;20029;-75
2023/04/18 01:46:19;;;;;;;30.88;8.93;;;;;;;;;;6122079;23;20431;-75
2023/04/18 01:48:46;;;;;;;23.27;9.25;;;;;;;;;;6121643;23;20038;-75
2023/04/18 01:51:12;;;;;;;28.42;9.20;;;;;;;;;;6096463;23;20014;-75
2023/04/18 01:53:38;;;;;;;23.25;8.80;;;;;;;;;;6071664;23;20010;-74
2023/04/18 01:56:05;;;;;;;24.48;9.32;;;;;;;;;;6096028;23;20024;-75
2023/04/18 01:58:30;;;;;;;29.50;11.35;;;;;;;;;;6096095;23;20450;-74
2023/04/18 02:00:57;;;;;;;19.33;8.10;;;;;;;;;;6095827;23;20022;-75
2023/04/18 02:03:23;;;;;;;29.13;9.07;;;;;;;;;;6122012;23;20100;-74
2023/04/18 02:05:51;;;;;;;29.73;9.38;;;;;;;;;;6072149;23;20045;-74
2023/04/18 02:08:17;;;;;;;21.90;8.77;;;;;;;;;;6121952;23;20073;-75
2023/04/18 02:10:44;;;;;;;23.48;8.70;;;;;;;;;;6121879;23;20040;-75
2023/04/18 02:13:10;;;;;;;24.15;8.65;;;;;;;;;;6122030;23;20101;-76
2023/04/18 02:15:36;;;;;;;27.70;8.98;;;;;;;;;;6051797;23;20013;-74
2023/04/18 02:18:03;;;;;;;20.05;8.73;;;;;;;;;;6077093;23;20010;-75
2023/04/18 02:20:30;;;;;;;41.10;14.43;;;;;;;;;;6126023;23;20149;-75
2023/04/18 02:22:57;;;;;;;16.83;8.55;;;;;;;;;;6100249;23;20021;-74
2023/04/18 02:25:25;;;;;;;28.17;9.60;;;;;;;;;;6098679;23;20069;-75
2023/04/18 02:27:51;;;;;;;27.60;10.38;;;;;;;;;;6124066;23;20013;-75
2023/04/18 02:30:17;;;;;;;27.00;8.77;;;;;;;;;;6124710;23;20108;-74
2023/04/18 02:32:43;;;;;;;23.27;10.13;;;;;;;;;;6099082;23;20458;-74
2023/04/18 02:35:10;;;;;;;34.72;10.30;;;;;;;;;;6125017;23;20085;-75
2023/04/18 02:37:36;;;;;;;26.92;9.82;;;;;;;;;;6123826;23;20010;-75
2023/04/18 02:40:03;;;;;;;28.23;9.40;;;;;;;;;;6073732;23;20100;-75
2023/04/18 02:42:31;;;;;;;26.98;10.57;;;;;;;;;;6074381;23;20018;-74
2023/04/18 02:44:59;;;;;;;27.60;9.45;;;;;;;;;;6073410;23;20045;-74
2023/04/18 02:47:26;;;;;;;20.73;9.43;;;;;;;;;;6073633;23;20021;-75
2023/04/18 02:49:52;;;;;;;25.80;9.20;;;;;;;;;;6073736;23;20010;-74
2023/04/18 02:52:17;;;;;;;31.52;9.55;;;;;;;;;;6097247;23;20021;-74
2023/04/18 02:54:44;;;;;;;26.85;9.40;;;;;;;;;;6123031;23;20021;-75
2023/04/18 02:57:14;;;;;;;;;;;;;;;;;;6075150;23;20459;-75
2023/04/18 03:00:05;;;;;;;19.67;8.82;;;;;;;;;;6112641;23;19917;-74
2023/04/18 03:03:11;;;;;;;26.70;9.23;;;;;;;;;;5977039;24;20020;-74
2023/04/18 03:05:52;;;;;;;15.95;8.50;;;;;;;;;;5977434;24;20016;-74
2023/04/18 03:08:18;;;;;;;26.67;9.00;;;;;;;;;;6048689;23;20017;-74
2023/04/18 03:10:44;;;;;;;24.30;9.88;;;;;;;;;;6122541;23;20018;-75
2023/04/18 03:13:10;;;;;;;26.75;10.23;;;;;;;;;;6074560;23;20065;-75
2023/04/18 03:15:37;;;;;;;18.63;9.25;;;;;;;;;;6098360;23;20017;-76
2023/04/18 03:18:04;;;;;;;20.88;9.85;;;;;;;;;;6074319;23;20010;-76
2023/04/18 03:20:33;;;;;;;36.63;11.82;;;;;;;;;;6074601;23;20025;-76
2023/04/18 03:22:59;;;;;;;31.90;10.05;;;;;;;;;;6124363;23;20029;-76
2023/04/18 03:25:28;;;;;;;36.13;10.52;;;;;;;;;;6098097;23;20371;-75
2023/04/18 03:27:55;;;;;;;23.45;10.10;;;;;;;;;;6074621;23;20014;-75
2023/04/18 03:30:22;;;;;;;30.27;12.40;;;;;;;;;;6099364;23;20018;-75
2023/04/18 03:32:54;;;;;;;40.40;16.75;;;;;;;;;;6101034;23;20101;-76
2023/04/18 03:35:21;;;;;;;47.92;14.27;;;;;;;;;;6099065;23;20611;-75
2023/04/18 03:37:47;;;;;;;28.05;11.55;;;;;;;;;;6098127;23;20020;-76
2023/04/18 03:40:21;;;;;;;35.03;11.75;;;;;;;;;;6097932;23;20033;-76
2023/04/18 03:42:49;;;;;;;41.22;12.00;;;;;;;;;;6073963;23;20068;-76
2023/04/18 03:45:15;;;;;;;34.08;11.95;;;;;;;;;;6073922;23;20017;-76
2023/04/18 03:47:43;;;;;;;40.25;13.30;;;;;;;;;;6075457;23;20037;-75
2023/04/18 03:50:09;;;;;;;33.53;11.60;;;;;;;;;;6100294;23;20013;-76
2023/04/18 03:52:36;;;;;;;29.23;11.50;;;;;;;;;;6102926;23;20044;-76
2023/04/18 03:55:04;;;;;;;37.13;11.50;;;;;;;;;;6110094;23;20042;-75
2023/04/18 03:57:33;;;;;;;32.08;10.57;;;;;;;;;;6109117;23;20013;-76
2023/04/18 04:00:06;;;;;;;38.05;11.38;;;;;;;;;;6103239;23;20097;-75
2023/04/18 04:02:42;;;;;;;39.13;11.48;;;;;;;;;;6124021;23;20017;-76
2023/04/18 04:05:10;;;;;;;33.95;11.38;;;;;;;;;;6098113;23;20583;-77
2023/04/18 04:07:36;;;;;;;25.48;11.15;;;;;;;;;;6097845;23;20024;-76
2023/04/18 04:10:02;;;;;;;40.92;12.23;;;;;;;;;;6097932;23;20014;-76
2023/04/18 04:12:30;;;;;;;38.35;11.20;;;;;;;;;;6097831;23;20014;-75
2023/04/18 04:14:56;;;;;;;38.25;11.07;;;;;;;;;;6097949;23;20017;-75
2023/04/18 04:17:23;;;;;;;37.60;11.82;;;;;;;;;;6096874;23;20036;-75
2023/04/18 04:19:51;;;;;;;19.70;10.60;;;;;;;;;;6098030;23;20018;-76
2023/04/18 04:22:18;;;;;;;32.22;11.07;;;;;;;;;;6097863;23;20374;-76
2023/04/18 04:24:46;;;;;;;32.63;10.77;;;;;;;;;;6097950;23;20014;-76
2023/04/18 04:27:14;;;;;;;33.17;10.98;;;;;;;;;;6069906;23;20095;-75
2023/04/18 04:29:42;;;;;;;35.30;11.10;;;;;;;;;;6089413;23;20021;-75
2023/04/18 04:32:08;;;;;;;30.98;11.77;;;;;;;;;;6090872;23;20479;-75
2023/04/18 04:34:40;;;;;;;46.35;12.07;;;;;;;;;;6088780;23;20022;-75
2023/04/18 04:37:08;;;;;;;34.38;12.05;;;;;;;;;;6068002;23;20018;-76
2023/04/18 04:39:40;;;;;;;24.90;12.02;;;;;;;;;;6067236;23;20019;-76
2023/04/18 04:42:35;;;;;;;31.83;12.40;;;;;;;;;;6084710;23;20017;-76
2023/04/18 04:45:09;;;;;;;38.45;12.65;;;;;;;;;;6090617;23;20347;-77
2023/04/18 04:47:35;;;;;;;35.20;11.55;;;;;;;;;;6067829;23;20018;-73
2023/04/18 04:50:03;;;;;;;39.30;12.60;;;;;;;;;;6122898;23;20053;-74
2023/04/18 04:52:31;;;;;;;44.55;13.52;;;;;;;;;;6063551;23;20018;-74
2023/04/18 04:54:57;;;;;;;53.22;16.90;;;;;;;;;;6095739;23;20109;-74
2023/04/18 04:57:24;;;;;;;61.33;17.13;;;;;;;;;;6091281;23;20037;-73
2023/04/18 04:59:51;;;;;;;35.28;16.42;;;;;;;;;;6093509;23;20029;-73
2023/04/18 05:02:21;;;;;;;44.70;17.75;;;;;;;;;;6091322;23;20069;-74
2023/04/18 05:04:48;;;;;;;51.45;17.50;;;;;;;;;;6119973;23;20093;-73
2023/04/18 05:07:15;;;;;;;41.97;15.80;;;;;;;;;;6091415;23;20073;-75
2023/04/18 05:09:40;;;;;;;39.78;15.93;;;;;;;;;;6117306;23;20025;-75
2023/04/18 05:12:07;;;;;;;42.08;19.52;;;;;;;;;;6121552;23;20009;-74
2023/04/18 05:14:33;;;;;;;45.45;15.27;;;;;;;;;;6090616;23;20018;-74
2023/04/18 05:16:59;;;;;;;43.13;15.23;;;;;;;;;;6120742;23;20014;-74
2023/04/18 05:19:25;;;;;;;39.50;13.48;;;;;;;;;;6090350;23;20014;-74
2023/04/18 05:21:51;;;;;;;42.88;14.13;;;;;;;;;;6119896;23;20386;-73
2023/04/18 05:24:17;;;;;;;40.58;13.60;;;;;;;;;;6124997;23;20017;-73
2023/04/18 05:26:43;;;;;;;26.23;13.15;;;;;;;;;;6136597;23;20021;-73
2023/04/18 05:29:10;;;;;;;42.58;13.73;;;;;;;;;;6108243;23;20015;-73
2023/04/18 05:31:36;;;;;;;38.90;13.90;;;;;;;;;;6104970;23;20041;-73
2023/04/18 05:34:02;;;;;;;30.98;13.77;;;;;;;;;;6138680;23;20024;-72
2023/04/18 05:36:28;;;;;;;32.05;13.70;;;;;;;;;;6126259;23;20014;-74
2023/04/18 05:38:54;;;;;;;32.60;14.25;;;;;;;;;;6120069;23;20017;-73
2023/04/18 05:41:20;;;;;;;32.05;11.50;;;;;;;;;;6089638;23;20033;-72
2023/04/18 05:43:46;;;;;;;21.58;12.07;;;;;;;;;;6090646;23;20014;-72
2023/04/18 05:46:12;;;;;;;18.77;10.50;;;;;;;;;;6120338;23;20065;-73
2023/04/18 05:48:38;;;;;;;24.05;11.60;;;;;;;;;;6064498;23;20018;-74
2023/04/18 05:51:04;;;;;;;27.00;11.32;;;;;;;;;;6119679;23;20117;-74
2023/04/18 05:53:31;;;;;;;21.55;11.50;;;;;;;;;;6120079;23;20358;-75
2023/04/18 05:55:58;;;;;;;27.70;11.00;;;;;;;;;;6120062;23;20013;-74
2023/04/18 05:58:24;;;;;;;29.50;12.27;;;;;;;;;;6119858;23;20013;-75
2023/04/18 06:00:51;;;;;;;25.73;11.52;;;;;;;;;;6119417;23;20104;-73
2023/04/18 06:03:17;;;;;;;26.70;13.02;;;;;;;;;;6119956;23;20014;-74
2023/04/18 06:05:43;;;;;;;23.38;11.85;;;;;;;;;;6067784;23;20369;-73
2023/04/18 06:08:09;;;;;;;31.95;13.27;;;;;;;;;;6123595;23;20020;-73
2023/04/18 06:10:35;;;;;;;49.55;25.20;;;;;;;;;;6122653;23;20033;-73
2023/04/18 06:13:01;;;;;;;38.17;17.10;;;;;;;;;;6123824;23;20018;-73
2023/04/18 06:15:27;;;;;;;36.80;13.25;;;;;;;;;;6123863;23;20014;-73
2023/04/18 06:17:56;;;;;;;26.65;12.75;;;;;;;;;;6123655;23;20013;-73
2023/04/18 06:20:22;;;;;;;27.55;11.93;;;;;;;;;;6093102;23;20030;-73
2023/04/18 06:22:49;;;;;;;23.98;11.77;;;;;;;;;;6120627;23;20026;-72
2023/04/18 06:25:15;;;;;;;30.42;13.05;;;;;;;;;;6092533;23;20106;-73
2023/04/18 06:27:44;;;;;;;30.25;14.25;;;;;;;;;;6093682;23;20019;-73
2023/04/18 06:30:10;;;;;;;23.50;12.05;;;;;;;;;;6092977;23;20030;-74
2023/04/18 06:32:36;;;;;;;18.35;8.95;;;;;;;;;;6118726;23;20021;-74
2023/04/18 06:35:02;;;;;;;33.13;11.68;;;;;;;;;;6124609;23;20042;-74
2023/04/18 06:37:30;;;;;;;29.77;11.63;;;;;;;;;;6139684;23;20038;-74
2023/04/18 06:39:57;;;;;;;33.97;10.95;;;;;;;;;;6115583;23;20049;-74
2023/04/18 06:42:23;;;;;;;40.13;10.57;;;;;;;;;;6144982;23;20021;-74
2023/04/18 06:44:49;;;;;;;24.85;8.75;;;;;;;;;;6143884;23;20073;-74
2023/04/18 06:47:15;;;;;;;30.17;10.77;;;;;;;;;;6144000;23;20021;-73
2023/04/18 06:49:41;;;;;;;38.95;12.10;;;;;;;;;;6108777;23;20019;-74
2023/04/18 06:52:08;;;;;;;39.72;12.32;;;;;;;;;;6141162;23;20530;-75
2023/04/18 06:54:34;;;;;;;34.78;16.00;;;;;;;;;;6096459;23;20014;-74
2023/04/18 06:57:02;;;;;;;21.73;8.52;;;;;;;;;;6097422;23;20022;-75
2023/04/18 06:59:29;;;;;;;12.55;8.40;;;;;;;;;;6123828;23;20017;-74
2023/04/18 07:01:54;;;;;;;23.73;9.73;;;;;;;;;;6123533;23;20105;-73
2023/04/18 07:04:20;;;;;;;20.50;8.70;;;;;;;;;;6123610;23;20050;-75
2023/04/18 07:06:46;;;;;;;18.30;8.27;;;;;;;;;;6094748;23;20018;-75
2023/04/18 07:09:12;;;;;;;14.85;8.55;;;;;;;;;;6068738;23;20010;-76
2023/04/18 07:11:39;;;;;;;8.68;7.45;;;;;;;;;;6120998;23;20033;-77
2023/04/18 07:14:05;;;;;;;9.52;7.50;;;;;;;;;;6095977;23;20073;-75
2023/04/18 07:16:31;;;;;;;7.32;5.68;;;;;;;;;;6070912;23;20570;-77
2023/04/18 07:18:58;;;;;;;12.07;7.00;;;;;;;;;;6049998;23;20610;-75
2023/04/18 07:21:24;;;;;;;12.00;8.00;;;;;;;;;;6070258;23;20022;-77
2023/04/18 07:23:50;;;;;;;12.57;6.70;;;;;;;;;;6074050;23;20018;-75
2023/04/18 07:26:16;;;;;;;14.27;7.43;;;;;;;;;;6133796;23;20537;-74
2023/04/18 07:28:42;;;;;;;11.35;6.75;;;;;;;;;;6133874;23;20009;-75
2023/04/18 07:31:10;;;;;;;8.20;6.50;;;;;;;;;;6104668;23;20080;-75
2023/04/18 07:33:36;;;;;;;8.35;7.03;;;;;;;;;;6123350;23;20014;-76
2023/04/18 07:36:02;;;;;;;8.55;7.00;;;;;;;;;;6123632;23;20013;-75
2023/04/18 07:38:29;;;;;;;8.60;6.82;;;;;;;;;;6123470;23;20010;-76
2023/04/18 07:40:55;;;;;;;11.15;7.15;;;;;;;;;;6095071;23;20407;-75
2023/04/18 07:43:21;;;;;;;8.27;6.90;;;;;;;;;;6094803;23;20048;-75
2023/04/18 07:45:47;;;;;;;10.65;7.25;;;;;;;;;;6123478;23;20489;-76
2023/04/18 07:48:13;;;;;;;11.75;7.25;;;;;;;;;;6073626;23;20010;-76
2023/04/18 07:50:39;;;;;;;16.48;8.02;;;;;;;;;;6120066;23;20498;-77
2023/04/18 07:53:07;;;;;;;9.18;7.55;;;;;;;;;;6070497;23;20013;-77
2023/04/18 07:55:33;;;;;;;8.82;7.63;;;;;;;;;;6120936;23;20013;-76
2023/04/18 07:57:59;;;;;;;8.07;7.18;;;;;;;;;;6121926;23;20014;-76
2023/04/18 08:00:25;;;;;;;8.80;7.93;;;;;;;;;;6096911;23;20106;-76
2023/04/18 08:02:51;;;;;;;9.93;7.72;;;;;;;;;;6123468;23;20035;-77
2023/04/18 08:05:20;;;;;;;15.57;7.80;;;;;;;;;;6073984;23;20114;-76
2023/04/18 08:07:46;;;;;;;11.50;8.07;;;;;;;;;;6122769;23;20020;-77
2023/04/18 08:10:12;;;;;;;20.80;8.20;;;;;;;;;;6123839;23;20121;-76
2023/04/18 08:12:39;;;;;;;9.25;7.60;;;;;;;;;;6123691;23;20021;-76
2023/04/18 08:15:06;;;;;;;13.23;6.50;;;;;;;;;;6097719;23;20013;-77
2023/04/18 08:17:33;;;;;;;9.75;7.35;;;;;;;;;;6097856;23;20016;-76
2023/04/18 08:19:59;;;;;;;11.55;7.63;;;;;;;;;;6123547;23;20013;-76
